sensor_id;sensor_type;location;lat;lon;timestamp;pressure;altitude;pressure_sealevel;temperature;humidity
37066;BME280;22981;43.080;25.550;2023-03-21T00:00:58;99507.74;;;7.09;62.08
37066;BME280;22981;43.080;25.550;2023-03-21T00:03:28;99503.37;;;7.12;62.10
37066;BME280;22981;43.080;25.550;2023-03-21T00:05:56;99503.06;;;7.11;62.04
37066;BME280;22981;43.080;25.550;2023-03-21T00:08:25;99506.48;;;7.05;62.01
37066;BME280;22981;43.080;25.550;2023-03-21T00:10:58;99500.70;;;6.95;62.20
37066;BME280;22981;43.080;25.550;2023-03-21T00:13:27;99489.64;;;6.98;62.35
37066;BME280;22981;43.080;25.550;2023-03-21T00:15:57;99482.84;;;7.06;62.32
37066;BME280;22981;43.080;25.550;2023-03-21T00:18:26;99477.36;;;7.14;62.26
37066;BME280;22981;43.080;25.550;2023-03-21T00:20:59;99475.51;;;7.15;62.28
37066;BME280;22981;43.080;25.550;2023-03-21T00:23:28;99467.34;;;7.16;62.33
37066;BME280;22981;43.080;25.550;2023-03-21T00:25:57;99469.96;;;7.10;62.46
37066;BME280;22981;43.080;25.550;2023-03-21T00:28:26;99465.52;;;6.99;62.61
37066;BME280;22981;43.080;25.550;2023-03-21T00:30:57;99464.41;;;6.87;62.90
37066;BME280;22981;43.080;25.550;2023-03-21T00:33:25;99460.22;;;6.89;63.08
37066;BME280;22981;43.080;25.550;2023-03-21T00:35:53;99447.66;;;6.93;63.11
37066;BME280;22981;43.080;25.550;2023-03-21T00:38:22;99453.16;;;7.02;63.11
37066;BME280;22981;43.080;25.550;2023-03-21T00:40:50;99447.33;;;7.10;63.12
37066;BME280;22981;43.080;25.550;2023-03-21T00:43:18;99449.09;;;7.13;63.09
37066;BME280;22981;43.080;25.550;2023-03-21T00:45:48;99449.69;;;7.09;63.13
37066;BME280;22981;43.080;25.550;2023-03-21T00:48:17;99446.16;;;7.01;63.36
37066;BME280;22981;43.080;25.550;2023-03-21T00:50:46;99443.33;;;7.03;63.50
37066;BME280;22981;43.080;25.550;2023-03-21T00:53:14;99448.36;;;7.09;63.43
37066;BME280;22981;43.080;25.550;2023-03-21T00:55:42;99444.50;;;7.11;63.43
37066;BME280;22981;43.080;25.550;2023-03-21T00:58:09;99441.23;;;7.16;63.47
37066;BME280;22981;43.080;25.550;2023-03-21T01:00:37;99434.80;;;7.21;63.51
37066;BME280;22981;43.080;25.550;2023-03-21T01:03:07;99426.00;;;7.27;63.39
37066;BME280;22981;43.080;25.550;2023-03-21T01:05:37;99428.74;;;7.16;63.42
37066;BME280;22981;43.080;25.550;2023-03-21T01:08:24;99426.61;;;6.98;63.59
37066;BME280;22981;43.080;25.550;2023-03-21T01:10:53;99431.44;;;6.82;63.91
37066;BME280;22981;43.080;25.550;2023-03-21T01:13:23;99428.87;;;6.84;64.02
37066;BME280;22981;43.080;25.550;2023-03-21T01:15:53;99431.66;;;6.87;63.98
37066;BME280;22981;43.080;25.550;2023-03-21T01:18:24;99433.66;;;6.95;63.88
37066;BME280;22981;43.080;25.550;2023-03-21T01:20:53;99424.87;;;7.01;63.76
37066;BME280;22981;43.080;25.550;2023-03-21T01:23:21;99423.89;;;7.09;63.70
37066;BME280;22981;43.080;25.550;2023-03-21T01:25:51;99425.34;;;7.12;63.70
37066;BME280;22981;43.080;25.550;2023-03-21T01:28:19;99418.09;;;7.16;63.68
37066;BME280;22981;43.080;25.550;2023-03-21T01:30:48;99414.41;;;7.17;63.67
37066;BME280;22981;43.080;25.550;2023-03-21T01:33:16;99407.91;;;7.09;63.71
37066;BME280;22981;43.080;25.550;2023-03-21T01:35:44;99410.23;;;7.01;63.89
37066;BME280;22981;43.080;25.550;2023-03-21T01:38:13;99414.64;;;6.98;64.13
37066;BME280;22981;43.080;25.550;2023-03-21T01:40:42;99421.52;;;7.03;64.13
37066;BME280;22981;43.080;25.550;2023-03-21T01:43:28;99416.11;;;7.08;64.10
37066;BME280;22981;43.080;25.550;2023-03-21T01:46:16;99419.59;;;7.08;64.05
37066;BME280;22981;43.080;25.550;2023-03-21T01:48:41;99414.13;;;6.99;64.15
37066;BME280;22981;43.080;25.550;2023-03-21T01:51:11;99412.46;;;6.98;64.21
37066;BME280;22981;43.080;25.550;2023-03-21T01:53:40;99410.23;;;7.01;64.18
37066;BME280;22981;43.080;25.550;2023-03-21T01:56:10;99406.97;;;7.06;64.15
37066;BME280;22981;43.080;25.550;2023-03-21T01:58:40;99402.08;;;7.10;64.09
37066;BME280;22981;43.080;25.550;2023-03-21T02:01:08;99405.25;;;7.09;64.12
37066;BME280;22981;43.080;25.550;2023-03-21T02:03:39;99404.95;;;7.08;64.19
37066;BME280;22981;43.080;25.550;2023-03-21T02:06:11;99392.77;;;7.10;64.24
37066;BME280;22981;43.080;25.550;2023-03-21T02:08:40;99388.67;;;7.07;64.29
37066;BME280;22981;43.080;25.550;2023-03-21T02:11:08;99396.92;;;7.01;64.41
37066;BME280;22981;43.080;25.550;2023-03-21T02:13:36;99396.01;;;6.98;64.49
37066;BME280;22981;43.080;25.550;2023-03-21T02:16:27;99398.84;;;6.97;64.58
37066;BME280;22981;43.080;25.550;2023-03-21T02:22:07;99403.99;;;6.98;64.47
37066;BME280;22981;43.080;25.550;2023-03-21T02:24:42;99411.50;;;6.88;64.48
37066;BME280;22981;43.080;25.550;2023-03-21T02:40:44;99392.19;;;6.97;64.59
37066;BME280;22981;43.080;25.550;2023-03-21T02:43:16;99397.95;;;7.00;64.55
37066;BME280;22981;43.080;25.550;2023-03-21T02:45:48;99402.58;;;7.02;64.55
37066;BME280;22981;43.080;25.550;2023-03-21T02:48:20;99399.58;;;7.01;64.71
37066;BME280;22981;43.080;25.550;2023-03-21T02:50:49;99400.83;;;7.06;64.80
37066;BME280;22981;43.080;25.550;2023-03-21T02:53:20;99402.16;;;7.06;64.86
37066;BME280;22981;43.080;25.550;2023-03-21T02:55:48;99414.13;;;6.99;64.89
37066;BME280;22981;43.080;25.550;2023-03-21T02:58:22;99415.48;;;6.88;65.10
37066;BME280;22981;43.080;25.550;2023-03-21T03:00:52;99415.91;;;6.85;65.29
37066;BME280;22981;43.080;25.550;2023-03-21T03:03:22;99415.31;;;6.90;65.29
37066;BME280;22981;43.080;25.550;2023-03-21T03:05:57;99417.89;;;6.94;65.34
37066;BME280;22981;43.080;25.550;2023-03-21T03:08:42;99423.83;;;6.96;65.34
37066;BME280;22981;43.080;25.550;2023-03-21T03:11:25;99421.77;;;6.98;65.43
37066;BME280;22981;43.080;25.550;2023-03-21T03:19:50;99416.95;;;6.91;65.32
37066;BME280;22981;43.080;25.550;2023-03-21T03:22:17;99427.44;;;6.99;65.27
37066;BME280;22981;43.080;25.550;2023-03-21T03:24:49;99423.66;;;7.04;65.19
37066;BME280;22981;43.080;25.550;2023-03-21T03:27:18;99429.81;;;7.05;65.22
37066;BME280;22981;43.080;25.550;2023-03-21T03:29:48;99422.13;;;7.06;65.27
37066;BME280;22981;43.080;25.550;2023-03-21T03:32:23;99420.41;;;7.09;65.38
37066;BME280;22981;43.080;25.550;2023-03-21T03:34:50;99424.63;;;7.14;65.38
37066;BME280;22981;43.080;25.550;2023-03-21T03:37:23;99425.95;;;7.14;65.43
37066;BME280;22981;43.080;25.550;2023-03-21T03:39:59;99422.05;;;7.10;65.63
37066;BME280;22981;43.080;25.550;2023-03-21T03:42:29;99417.88;;;7.11;65.68
37066;BME280;22981;43.080;25.550;2023-03-21T03:44:56;99410.58;;;7.09;65.77
37066;BME280;22981;43.080;25.550;2023-03-21T03:47:46;99416.72;;;7.10;65.92
37066;BME280;22981;43.080;25.550;2023-03-21T03:50:29;99411.22;;;7.11;65.97
37066;BME280;22981;43.080;25.550;2023-03-21T03:53:06;99413.16;;;7.13;65.88
37066;BME280;22981;43.080;25.550;2023-03-21T03:55:34;99406.50;;;7.13;65.82
37066;BME280;22981;43.080;25.550;2023-03-21T03:58:02;99409.76;;;7.09;65.91
37066;BME280;22981;43.080;25.550;2023-03-21T04:00:33;99418.26;;;7.08;66.04
37066;BME280;22981;43.080;25.550;2023-03-21T04:03:01;99415.91;;;7.09;66.07
37066;BME280;22981;43.080;25.550;2023-03-21T04:05:28;99411.91;;;7.09;66.14
37066;BME280;22981;43.080;25.550;2023-03-21T04:07:56;99402.72;;;7.12;66.21
37066;BME280;22981;43.080;25.550;2023-03-21T04:10:23;99396.80;;;7.16;66.13
37066;BME280;22981;43.080;25.550;2023-03-21T04:12:51;99402.84;;;7.21;66.07
37066;BME280;22981;43.080;25.550;2023-03-21T04:15:19;99404.61;;;7.24;65.98
37066;BME280;22981;43.080;25.550;2023-03-21T04:17:46;99409.42;;;7.25;65.94
37066;BME280;22981;43.080;25.550;2023-03-21T04:20:14;99420.16;;;7.27;65.92
37066;BME280;22981;43.080;25.550;2023-03-21T04:22:41;99427.97;;;7.29;65.87
37066;BME280;22981;43.080;25.550;2023-03-21T04:25:09;99439.31;;;7.27;65.87
37066;BME280;22981;43.080;25.550;2023-03-21T04:27:38;99425.48;;;7.27;65.95
37066;BME280;22981;43.080;25.550;2023-03-21T04:30:07;99425.23;;;7.33;65.92
37066;BME280;22981;43.080;25.550;2023-03-21T04:32:37;99430.25;;;7.39;65.89
37066;BME280;22981;43.080;25.550;2023-03-21T04:35:06;99429.35;;;7.42;65.84
37066;BME280;22981;43.080;25.550;2023-03-21T04:37:35;99430.38;;;7.48;65.75
37066;BME280;22981;43.080;25.550;2023-03-21T04:40:05;99423.76;;;7.55;65.67
37066;BME280;22981;43.080;25.550;2023-03-21T04:42:34;99426.63;;;7.60;65.65
37066;BME280;22981;43.080;25.550;2023-03-21T04:45:02;99423.24;;;7.62;65.64
37066;BME280;22981;43.080;25.550;2023-03-21T04:47:29;99426.94;;;7.61;65.56
37066;BME280;22981;43.080;25.550;2023-03-21T04:49:57;99430.59;;;7.46;65.79
37066;BME280;22981;43.080;25.550;2023-03-21T04:52:24;99421.11;;;7.31;66.17
37066;BME280;22981;43.080;25.550;2023-03-21T04:54:52;99419.47;;;7.30;66.38
37066;BME280;22981;43.080;25.550;2023-03-21T04:57:20;99408.52;;;7.35;66.38
37066;BME280;22981;43.080;25.550;2023-03-21T04:59:47;99402.72;;;7.42;66.33
37066;BME280;22981;43.080;25.550;2023-03-21T05:02:15;99398.72;;;7.49;66.23
37066;BME280;22981;43.080;25.550;2023-03-21T05:04:43;99399.36;;;7.51;66.32
37066;BME280;22981;43.080;25.550;2023-03-21T05:07:11;99393.21;;;7.50;66.45
37066;BME280;22981;43.080;25.550;2023-03-21T05:09:38;99392.61;;;7.55;66.53
37066;BME280;22981;43.080;25.550;2023-03-21T05:12:06;99393.12;;;7.61;66.42
37066;BME280;22981;43.080;25.550;2023-03-21T05:14:33;99385.84;;;7.66;66.39
37066;BME280;22981;43.080;25.550;2023-03-21T05:17:01;99387.51;;;7.73;66.35
37066;BME280;22981;43.080;25.550;2023-03-21T05:19:31;99399.92;;;7.77;66.24
37066;BME280;22981;43.080;25.550;2023-03-21T05:22:03;99393.86;;;7.79;66.29
37066;BME280;22981;43.080;25.550;2023-03-21T05:24:32;99398.59;;;7.90;66.21
37066;BME280;22981;43.080;25.550;2023-03-21T05:27:02;99413.16;;;7.94;65.94
37066;BME280;22981;43.080;25.550;2023-03-21T05:29:30;99420.95;;;7.96;65.94
37066;BME280;22981;43.080;25.550;2023-03-21T05:31:59;99428.45;;;8.03;65.87
37066;BME280;22981;43.080;25.550;2023-03-21T05:34:27;99422.08;;;8.04;65.83
37066;BME280;22981;43.080;25.550;2023-03-21T05:36:55;99419.02;;;8.07;65.87
37066;BME280;22981;43.080;25.550;2023-03-21T05:39:22;99412.97;;;8.16;65.84
37066;BME280;22981;43.080;25.550;2023-03-21T05:41:50;99413.17;;;8.21;65.84
37066;BME280;22981;43.080;25.550;2023-03-21T05:44:18;99419.03;;;8.27;65.79
37066;BME280;22981;43.080;25.550;2023-03-21T05:46:45;99416.75;;;8.31;65.70
37066;BME280;22981;43.080;25.550;2023-03-21T05:49:13;99413.98;;;8.35;65.67
37066;BME280;22981;43.080;25.550;2023-03-21T05:51:40;99423.23;;;8.39;65.65
37066;BME280;22981;43.080;25.550;2023-03-21T05:54:08;99418.02;;;8.41;65.60
37066;BME280;22981;43.080;25.550;2023-03-21T05:56:37;99423.14;;;8.43;65.65
37066;BME280;22981;43.080;25.550;2023-03-21T05:59:05;99435.66;;;8.42;65.63
37066;BME280;22981;43.080;25.550;2023-03-21T06:01:33;99434.95;;;8.38;65.63
37066;BME280;22981;43.080;25.550;2023-03-21T06:04:01;99440.65;;;8.35;65.77
37066;BME280;22981;43.080;25.550;2023-03-21T06:06:28;99438.83;;;8.35;65.93
37066;BME280;22981;43.080;25.550;2023-03-21T06:08:56;99439.95;;;8.43;65.88
37066;BME280;22981;43.080;25.550;2023-03-21T06:11:26;99433.41;;;8.52;65.83
37066;BME280;22981;43.080;25.550;2023-03-21T06:13:54;99441.06;;;8.65;65.62
37066;BME280;22981;43.080;25.550;2023-03-21T06:16:22;99439.95;;;8.70;65.45
37066;BME280;22981;43.080;25.550;2023-03-21T06:18:49;99441.89;;;8.78;65.26
37066;BME280;22981;43.080;25.550;2023-03-21T06:21:17;99444.23;;;8.91;65.14
37066;BME280;22981;43.080;25.550;2023-03-21T06:23:44;99438.73;;;9.08;65.02
37066;BME280;22981;43.080;25.550;2023-03-21T06:26:12;99430.22;;;9.31;65.00
37066;BME280;22981;43.080;25.550;2023-03-21T06:28:40;99431.37;;;9.48;64.70
37066;BME280;22981;43.080;25.550;2023-03-21T06:31:07;99425.16;;;9.54;64.51
37066;BME280;22981;43.080;25.550;2023-03-21T06:33:35;99431.00;;;9.61;64.45
37066;BME280;22981;43.080;25.550;2023-03-21T06:36:03;99442.03;;;9.71;64.25
37066;BME280;22981;43.080;25.550;2023-03-21T06:38:30;99440.62;;;9.84;63.99
37066;BME280;22981;43.080;25.550;2023-03-21T06:40:58;99443.72;;;9.97;63.64
37066;BME280;22981;43.080;25.550;2023-03-21T06:43:26;99444.77;;;10.12;63.42
37066;BME280;22981;43.080;25.550;2023-03-21T06:45:53;99434.84;;;10.35;63.03
37066;BME280;22981;43.080;25.550;2023-03-21T06:48:21;99437.73;;;10.58;62.50
37066;BME280;22981;43.080;25.550;2023-03-21T06:50:52;99445.03;;;10.78;61.90
37066;BME280;22981;43.080;25.550;2023-03-21T06:53:21;99436.89;;;11.01;61.33
37066;BME280;22981;43.080;25.550;2023-03-21T06:55:56;99435.91;;;11.23;60.85
37066;BME280;22981;43.080;25.550;2023-03-21T06:58:24;99439.52;;;11.47;60.41
37066;BME280;22981;43.080;25.550;2023-03-21T07:00:52;99437.63;;;11.66;59.60
37066;BME280;22981;43.080;25.550;2023-03-21T07:03:20;99436.63;;;11.78;59.03
37066;BME280;22981;43.080;25.550;2023-03-21T07:05:48;99439.08;;;11.89;58.51
37066;BME280;22981;43.080;25.550;2023-03-21T07:08:16;99435.62;;;12.00;58.07
37066;BME280;22981;43.080;25.550;2023-03-21T07:10:44;99436.23;;;12.14;57.86
37066;BME280;22981;43.080;25.550;2023-03-21T07:13:12;99444.19;;;12.33;57.60
37066;BME280;22981;43.080;25.550;2023-03-21T07:15:40;99439.55;;;12.51;57.11
37066;BME280;22981;43.080;25.550;2023-03-21T07:18:09;99436.46;;;12.69;56.85
37066;BME280;22981;43.080;25.550;2023-03-21T07:20:36;99440.64;;;12.88;56.43
37066;BME280;22981;43.080;25.550;2023-03-21T07:23:05;99439.05;;;13.01;56.20
37066;BME280;22981;43.080;25.550;2023-03-21T07:25:33;99440.92;;;13.24;56.17
37066;BME280;22981;43.080;25.550;2023-03-21T07:28:01;99443.78;;;13.46;55.48
37066;BME280;22981;43.080;25.550;2023-03-21T07:30:28;99442.24;;;13.65;55.00
37066;BME280;22981;43.080;25.550;2023-03-21T07:32:56;99439.88;;;13.83;54.41
37066;BME280;22981;43.080;25.550;2023-03-21T07:35:24;99439.20;;;13.90;54.05
37066;BME280;22981;43.080;25.550;2023-03-21T07:37:51;99434.25;;;13.98;53.91
37066;BME280;22981;43.080;25.550;2023-03-21T07:40:19;99433.12;;;14.11;53.61
37066;BME280;22981;43.080;25.550;2023-03-21T07:42:48;99427.67;;;14.23;53.28
37066;BME280;22981;43.080;25.550;2023-03-21T07:45:16;99421.48;;;14.39;52.94
37066;BME280;22981;43.080;25.550;2023-03-21T07:47:45;99412.34;;;14.57;52.36
37066;BME280;22981;43.080;25.550;2023-03-21T07:50:14;99411.14;;;14.67;52.25
37066;BME280;22981;43.080;25.550;2023-03-21T07:52:41;99412.88;;;14.76;52.23
37066;BME280;22981;43.080;25.550;2023-03-21T07:55:09;99408.16;;;14.86;51.95
37066;BME280;22981;43.080;25.550;2023-03-21T07:57:37;99414.23;;;14.95;51.69
37066;BME280;22981;43.080;25.550;2023-03-21T08:00:05;99413.42;;;14.95;51.42
37066;BME280;22981;43.080;25.550;2023-03-21T08:02:33;99410.68;;;14.92;51.14
37066;BME280;22981;43.080;25.550;2023-03-21T08:05:01;99406.15;;;14.95;50.97
37066;BME280;22981;43.080;25.550;2023-03-21T08:07:29;99416.99;;;15.00;50.56
37066;BME280;22981;43.080;25.550;2023-03-21T08:09:57;99411.94;;;15.07;50.30
37066;BME280;22981;43.080;25.550;2023-03-21T08:12:25;99408.75;;;15.10;50.43
37066;BME280;22981;43.080;25.550;2023-03-21T08:14:52;99407.45;;;15.15;50.63
37066;BME280;22981;43.080;25.550;2023-03-21T08:17:20;99405.95;;;15.24;50.35
37066;BME280;22981;43.080;25.550;2023-03-21T08:19:48;99407.66;;;15.30;50.36
37066;BME280;22981;43.080;25.550;2023-03-21T08:22:15;99410.95;;;15.37;50.55
37066;BME280;22981;43.080;25.550;2023-03-21T08:24:43;99407.81;;;15.45;50.14
37066;BME280;22981;43.080;25.550;2023-03-21T08:27:10;99408.49;;;15.58;49.98
37066;BME280;22981;43.080;25.550;2023-03-21T08:29:38;99408.92;;;15.69;49.74
37066;BME280;22981;43.080;25.550;2023-03-21T08:32:08;99406.13;;;15.86;49.33
37066;BME280;22981;43.080;25.550;2023-03-21T08:34:35;99406.55;;;16.05;48.62
37066;BME280;22981;43.080;25.550;2023-03-21T08:37:03;99406.52;;;16.32;48.07
37066;BME280;22981;43.080;25.550;2023-03-21T08:39:31;99403.97;;;16.57;47.51
37066;BME280;22981;43.080;25.550;2023-03-21T08:41:58;99397.41;;;16.80;46.94
37066;BME280;22981;43.080;25.550;2023-03-21T08:44:26;99400.78;;;17.05;46.64
37066;BME280;22981;43.080;25.550;2023-03-21T08:46:53;99396.00;;;17.27;46.23
37066;BME280;22981;43.080;25.550;2023-03-21T08:49:21;99392.81;;;17.43;45.97
37066;BME280;22981;43.080;25.550;2023-03-21T08:51:48;99396.09;;;17.58;45.54
37066;BME280;22981;43.080;25.550;2023-03-21T08:54:20;99393.72;;;17.74;45.45
37066;BME280;22981;43.080;25.550;2023-03-21T08:56:48;99393.48;;;17.86;45.15
37066;BME280;22981;43.080;25.550;2023-03-21T08:59:16;99383.73;;;17.90;45.07
37066;BME280;22981;43.080;25.550;2023-03-21T09:01:43;99386.44;;;17.90;44.87
37066;BME280;22981;43.080;25.550;2023-03-21T09:04:12;99383.16;;;17.81;45.14
37066;BME280;22981;43.080;25.550;2023-03-21T09:06:40;99379.05;;;17.68;45.17
37066;BME280;22981;43.080;25.550;2023-03-21T09:09:09;99380.38;;;17.55;45.69
37066;BME280;22981;43.080;25.550;2023-03-21T09:11:37;99380.36;;;17.45;45.94
37066;BME280;22981;43.080;25.550;2023-03-21T09:14:05;99380.32;;;17.32;46.03
37066;BME280;22981;43.080;25.550;2023-03-21T09:16:33;99382.72;;;17.18;46.29
37066;BME280;22981;43.080;25.550;2023-03-21T09:19:01;99385.37;;;17.06;46.68
37066;BME280;22981;43.080;25.550;2023-03-21T09:21:30;99375.30;;;16.93;47.10
37066;BME280;22981;43.080;25.550;2023-03-21T09:23:57;99377.13;;;16.83;47.13
37066;BME280;22981;43.080;25.550;2023-03-21T09:26:26;99373.54;;;16.72;47.39
37066;BME280;22981;43.080;25.550;2023-03-21T09:28:55;99369.70;;;16.63;47.49
37066;BME280;22981;43.080;25.550;2023-03-21T09:31:24;99378.84;;;16.57;47.70
37066;BME280;22981;43.080;25.550;2023-03-21T09:33:53;99378.58;;;16.56;47.83
37066;BME280;22981;43.080;25.550;2023-03-21T09:36:21;99377.80;;;16.58;47.79
37066;BME280;22981;43.080;25.550;2023-03-21T09:38:50;99377.00;;;16.62;47.80
37066;BME280;22981;43.080;25.550;2023-03-21T09:47:03;99386.41;;;16.55;47.91
37066;BME280;22981;43.080;25.550;2023-03-21T09:49:37;99386.17;;;16.59;47.98
37066;BME280;22981;43.080;25.550;2023-03-21T09:52:05;99384.57;;;16.65;47.91
37066;BME280;22981;43.080;25.550;2023-03-21T09:54:35;99381.89;;;16.68;47.94
37066;BME280;22981;43.080;25.550;2023-03-21T09:57:18;99370.05;;;16.74;47.78
37066;BME280;22981;43.080;25.550;2023-03-21T09:59:40;99377.03;;;16.70;47.43
37066;BME280;22981;43.080;25.550;2023-03-21T10:02:30;99372.16;;;16.67;47.48
37066;BME280;22981;43.080;25.550;2023-03-21T10:04:55;99373.22;;;16.63;47.51
37066;BME280;22981;43.080;25.550;2023-03-21T10:07:23;99367.55;;;16.65;47.61
37066;BME280;22981;43.080;25.550;2023-03-21T10:09:52;99375.41;;;16.69;47.79
37066;BME280;22981;43.080;25.550;2023-03-21T10:12:21;99373.59;;;16.74;47.64
37066;BME280;22981;43.080;25.550;2023-03-21T10:14:52;99370.62;;;16.78;47.49
37066;BME280;22981;43.080;25.550;2023-03-21T10:17:36;99367.66;;;16.83;47.31
37066;BME280;22981;43.080;25.550;2023-03-21T10:20:25;99367.17;;;16.88;47.42
37066;BME280;22981;43.080;25.550;2023-03-21T10:22:53;99368.25;;;16.90;47.26
37066;BME280;22981;43.080;25.550;2023-03-21T10:25:29;99364.46;;;16.91;47.16
37066;BME280;22981;43.080;25.550;2023-03-21T10:27:55;99360.45;;;16.96;46.93
37066;BME280;22981;43.080;25.550;2023-03-21T10:31:14;99356.94;;;16.98;47.04
37066;BME280;22981;43.080;25.550;2023-03-21T10:32:58;99364.77;;;16.99;47.27
37066;BME280;22981;43.080;25.550;2023-03-21T10:35:27;99352.61;;;16.97;47.14
37066;BME280;22981;43.080;25.550;2023-03-21T10:37:56;99354.75;;;16.92;46.56
37066;BME280;22981;43.080;25.550;2023-03-21T10:40:24;99353.63;;;16.86;46.54
37066;BME280;22981;43.080;25.550;2023-03-21T10:42:54;99355.23;;;16.82;46.55
37066;BME280;22981;43.080;25.550;2023-03-21T10:45:23;99353.34;;;16.80;46.51
37066;BME280;22981;43.080;25.550;2023-03-21T10:47:51;99347.13;;;16.82;46.46
37066;BME280;22981;43.080;25.550;2023-03-21T10:50:20;99347.68;;;16.86;46.46
37066;BME280;22981;43.080;25.550;2023-03-21T10:52:52;99343.13;;;16.94;46.24
37066;BME280;22981;43.080;25.550;2023-03-21T10:55:25;99348.55;;;16.99;46.11
37066;BME280;22981;43.080;25.550;2023-03-21T10:58:08;99343.97;;;17.02;45.87
37066;BME280;22981;43.080;25.550;2023-03-21T11:00:37;99347.48;;;17.03;45.87
37066;BME280;22981;43.080;25.550;2023-03-21T11:03:27;99352.08;;;17.02;46.04
37066;BME280;22981;43.080;25.550;2023-03-21T11:06:04;99346.95;;;17.01;45.94
37066;BME280;22981;43.080;25.550;2023-03-21T11:08:27;99345.87;;;17.07;46.04
37066;BME280;22981;43.080;25.550;2023-03-21T11:11:04;99347.27;;;17.15;45.98
37066;BME280;22981;43.080;25.550;2023-03-21T11:13:44;99345.66;;;17.19;45.42
37066;BME280;22981;43.080;25.550;2023-03-21T11:16:22;99339.72;;;17.22;45.58
37066;BME280;22981;43.080;25.550;2023-03-21T11:18:51;99342.41;;;17.24;45.52
37066;BME280;22981;43.080;25.550;2023-03-21T11:21:19;99331.33;;;17.23;45.32
37066;BME280;22981;43.080;25.550;2023-03-21T11:23:49;99330.23;;;17.24;45.10
37066;BME280;22981;43.080;25.550;2023-03-21T11:26:30;99330.52;;;17.28;45.00
37066;BME280;22981;43.080;25.550;2023-03-21T11:28:58;99331.88;;;17.28;45.38
37066;BME280;22981;43.080;25.550;2023-03-21T11:31:38;99332.70;;;17.31;45.57
37066;BME280;22981;43.080;25.550;2023-03-21T11:34:07;99332.14;;;17.29;45.61
37066;BME280;22981;43.080;25.550;2023-03-21T11:36:37;99320.52;;;17.26;45.92
37066;BME280;22981;43.080;25.550;2023-03-21T11:41:42;99310.48;;;17.19;46.13
37066;BME280;22981;43.080;25.550;2023-03-21T11:44:32;99302.61;;;17.12;46.30
37066;BME280;22981;43.080;25.550;2023-03-21T11:47:00;99301.80;;;17.07;46.55
37066;BME280;22981;43.080;25.550;2023-03-21T11:49:28;99299.32;;;17.00;46.54
37066;BME280;22981;43.080;25.550;2023-03-21T11:52:13;99289.30;;;16.95;46.59
37066;BME280;22981;43.080;25.550;2023-03-21T12:05:08;99274.39;;;16.83;47.22
37066;BME280;22981;43.080;25.550;2023-03-21T12:15:52;99263.02;;;16.78;47.37
37066;BME280;22981;43.080;25.550;2023-03-21T12:18:48;99266.27;;;16.77;47.40
37066;BME280;22981;43.080;25.550;2023-03-21T12:21:33;99262.75;;;16.77;47.49
37066;BME280;22981;43.080;25.550;2023-03-21T12:24:08;99266.27;;;16.75;47.22
37066;BME280;22981;43.080;25.550;2023-03-21T12:26:44;99264.91;;;16.72;47.32
37066;BME280;22981;43.080;25.550;2023-03-21T12:29:32;99261.66;;;16.73;47.49
37066;BME280;22981;43.080;25.550;2023-03-21T12:32:17;99259.73;;;16.71;47.63
37066;BME280;22981;43.080;25.550;2023-03-21T12:38:07;99255.66;;;16.68;47.47
37066;BME280;22981;43.080;25.550;2023-03-21T12:40:38;99249.99;;;16.67;47.50
37066;BME280;22981;43.080;25.550;2023-03-21T12:45:40;99237.02;;;16.67;47.33
37066;BME280;22981;43.080;25.550;2023-03-21T12:48:14;99226.48;;;16.68;47.35
37066;BME280;22981;43.080;25.550;2023-03-21T12:50:41;99215.94;;;16.66;47.33
37066;BME280;22981;43.080;25.550;2023-03-21T12:53:29;99213.48;;;16.65;47.23
37066;BME280;22981;43.080;25.550;2023-03-21T12:55:58;99206.45;;;16.64;47.53
37066;BME280;22981;43.080;25.550;2023-03-21T12:58:28;99204.30;;;16.63;47.61
37066;BME280;22981;43.080;25.550;2023-03-21T13:00:59;99205.09;;;16.61;47.64
37066;BME280;22981;43.080;25.550;2023-03-21T13:03:41;99200.23;;;16.58;47.74
37066;BME280;22981;43.080;25.550;2023-03-21T13:06:12;99206.44;;;16.53;47.53
37066;BME280;22981;43.080;25.550;2023-03-21T13:08:48;99198.85;;;16.50;47.45
37066;BME280;22981;43.080;25.550;2023-03-21T13:11:22;99203.69;;;16.48;47.53
37066;BME280;22981;43.080;25.550;2023-03-21T13:14:01;99207.75;;;16.46;47.32
37066;BME280;22981;43.080;25.550;2023-03-21T13:19:17;99204.22;;;16.43;47.40
37066;BME280;22981;43.080;25.550;2023-03-21T13:21:57;99202.88;;;16.40;47.50
37066;BME280;22981;43.080;25.550;2023-03-21T13:24:27;99197.18;;;16.37;47.75
37066;BME280;22981;43.080;25.550;2023-03-21T13:26:58;99198.78;;;16.35;47.76
37066;BME280;22981;43.080;25.550;2023-03-21T13:30:03;99198.51;;;16.34;47.77
37066;BME280;22981;43.080;25.550;2023-03-21T13:34:57;99201.21;;;16.34;47.83
37066;BME280;22981;43.080;25.550;2023-03-21T13:37:34;99197.70;;;16.34;47.63
37066;BME280;22981;43.080;25.550;2023-03-21T13:40:07;99205.00;;;16.33;47.79
37066;BME280;22981;43.080;25.550;2023-03-21T13:42:41;99195.54;;;16.33;48.02
37066;BME280;22981;43.080;25.550;2023-03-21T13:45:20;99194.73;;;16.35;47.95
37066;BME280;22981;43.080;25.550;2023-03-21T13:47:50;99191.22;;;16.35;47.77
37066;BME280;22981;43.080;25.550;2023-03-21T13:50:26;99186.62;;;16.35;47.87
37066;BME280;22981;43.080;25.550;2023-03-21T13:55:38;99186.64;;;16.38;48.04
37066;BME280;22981;43.080;25.550;2023-03-21T13:58:31;99180.42;;;16.40;47.96
37066;BME280;22981;43.080;25.550;2023-03-21T14:03:36;99184.77;;;16.43;47.85
37066;BME280;22981;43.080;25.550;2023-03-21T14:06:05;99175.04;;;16.42;47.89
37066;BME280;22981;43.080;25.550;2023-03-21T14:08:34;99181.25;;;16.43;48.13
37066;BME280;22981;43.080;25.550;2023-03-21T14:11:05;99173.15;;;16.43;48.03
37066;BME280;22981;43.080;25.550;2023-03-21T14:13:33;99169.64;;;16.42;47.96
37066;BME280;22981;43.080;25.550;2023-03-21T14:16:07;99167.75;;;16.40;48.02
37066;BME280;22981;43.080;25.550;2023-03-21T14:18:43;99167.45;;;16.39;47.87